Kirishima Maru No.5 — JD2506 — position and weather

sailwx.info

Track history (hours):
 
Tides and Currents Weather Stations Pressure Air Temp Water Temp Dewpoint Dewpoint Depression Visibility Wind Speed Wind Dir Waves Ship Positions

Kirishima Maru No.5

Last reported at 2016-Feb-12 21:30 UTC. Time now 2016-Feb-13 21:29 UTC.
Position N 34°02' E 134°59'.

Length 105 m; draft 5.4 m.

Type: Tanker. MMSI: 431000338.

Date/timePositionNaut miles runAvg speedWind from/ knotsBaromVisibWave heightAir tempDewpointWater temp
2016-Feb-12 21:30N 34°02' E 134°59'1715.4
2016-Feb-12 20:23N 34°19' E 134°59'1315.7
2016-Feb-12 19:33N 34°32' E 135°02'6 0.2
2016-Feb-11 09:33N 34°37' E 134°58'9 8.9
2016-Feb-11 08:33N 34°30' E 135°04'1413.2
2016-Feb-11 07:32N 34°17' E 134°59'26110.9
2016-Feb-10 07:31N 34°58' E 140°13'27 0.7
2016-Feb-08 18:31N 35°17' E 140°37'3115.6
2016-Feb-08 16:30N 34°57' E 140°08'1515.7
2016-Feb-08 15:32N 34°52' E 139°50'1313.2
2016-Feb-08 14:33N 35°04' E 139°44'1414.0
2016-Feb-08 13:33N 35°18' E 139°44'1312.8
2016-Feb-08 12:33N 35°30' E 139°47'1 1.2
2016-Feb-08 11:31N 35°31' E 139°46'0 0.0
2016-Feb-08 10:31N 35°31' E 139°46'0 0.0
2016-Feb-08 09:25N 35°31' E 139°46'0 0.0
2016-Feb-08 08:31N 35°31' E 139°46'0 0.0
2016-Feb-08 07:31N 35°31' E 139°46'0 0.0
2016-Feb-08 06:31N 35°31' E 139°46'0 0.0
2016-Feb-08 05:31N 35°31' E 139°46'1 0.8
2016-Feb-08 04:33N 35°30' E 139°45'6 6.5
2016-Feb-08 03:33N 35°24' E 139°45'0 0.0
2016-Feb-08 02:33N 35°24' E 139°45'0 0.3
2016-Feb-08 01:33N 35°24' E 139°45'1211.4
2016-Feb-08 00:33N 35°12' E 139°47'1613.2
2016-Feb-07 23:19N 34°56' E 139°44'1211.6
2016-Feb-07 22:19N 34°52' E 139°57'1112.9
2016-Feb-07 21:29N 34°57' E 140°09'2513.1
2016-Feb-07 19:33N 35°13' E 140°32'1413.5
2016-Feb-07 18:32N 35°24' E 140°43'1913.9
2016-Feb-07 17:09N 35°39' E 140°57'17 0.5
2016-Feb-06 07:03N 35°26' E 140°44'3714.6
2016-Feb-06 04:32N 34°59' E 140°14'1616.0
2016-Feb-06 03:33N 34°51' E 139°57'1615.1
2016-Feb-06 02:31N 34°44' E 139°40'23613.0
2016-Feb-05 08:21N 34°02' E 134°59'1215.2
2016-Feb-05 07:33N 34°14' E 134°58'1515.1
2016-Feb-05 06:33N 34°29' E 135°01'  
Track history (hours):
 
Tides and Currents Weather Stations Pressure Air Temp Water Temp Dewpoint Dewpoint Depression Visibility Wind Speed Wind Dir Waves Ship Positions

Kirishima Maru No.5

Last reported at 2016-Feb-12 21:30 UTC. Time now 2016-Feb-13 21:29 UTC.
Position N 34°02' E 134°59'.

Length 105 m; draft 5.4 m.

Type: Tanker. MMSI: 431000338.

Date/timePositionNaut miles runAvg speedWind from/ knotsBaromVisibWave heightAir tempDewpointWater temp
2016-Feb-12 21:30N 34°02' E 134°59'1715.4
2016-Feb-12 20:23N 34°19' E 134°59'1315.7
2016-Feb-12 19:33N 34°32' E 135°02'6 0.2
2016-Feb-11 09:33N 34°37' E 134°58'9 8.9
2016-Feb-11 08:33N 34°30' E 135°04'1413.2
2016-Feb-11 07:32N 34°17' E 134°59'26110.9
2016-Feb-10 07:31N 34°58' E 140°13'27 0.7
2016-Feb-08 18:31N 35°17' E 140°37'3115.6
2016-Feb-08 16:30N 34°57' E 140°08'1515.7
2016-Feb-08 15:32N 34°52' E 139°50'1313.2
2016-Feb-08 14:33N 35°04' E 139°44'1414.0
2016-Feb-08 13:33N 35°18' E 139°44'1312.8
2016-Feb-08 12:33N 35°30' E 139°47'1 1.2
2016-Feb-08 11:31N 35°31' E 139°46'0 0.0
2016-Feb-08 10:31N 35°31' E 139°46'0 0.0
2016-Feb-08 09:25N 35°31' E 139°46'0 0.0
2016-Feb-08 08:31N 35°31' E 139°46'0 0.0
2016-Feb-08 07:31N 35°31' E 139°46'0 0.0
2016-Feb-08 06:31N 35°31' E 139°46'0 0.0
2016-Feb-08 05:31N 35°31' E 139°46'1 0.8
2016-Feb-08 04:33N 35°30' E 139°45'6 6.5
2016-Feb-08 03:33N 35°24' E 139°45'0 0.0
2016-Feb-08 02:33N 35°24' E 139°45'0 0.3
2016-Feb-08 01:33N 35°24' E 139°45'1211.4
2016-Feb-08 00:33N 35°12' E 139°47'1613.2
2016-Feb-07 23:19N 34°56' E 139°44'1211.6
2016-Feb-07 22:19N 34°52' E 139°57'1112.9
2016-Feb-07 21:29N 34°57' E 140°09'2513.1
2016-Feb-07 19:33N 35°13' E 140°32'1413.5
2016-Feb-07 18:32N 35°24' E 140°43'1913.9
2016-Feb-07 17:09N 35°39' E 140°57'17 0.5
2016-Feb-06 07:03N 35°26' E 140°44'3714.6
2016-Feb-06 04:32N 34°59' E 140°14'1616.0
2016-Feb-06 03:33N 34°51' E 139°57'1615.1
2016-Feb-06 02:31N 34°44' E 139°40'23613.0
2016-Feb-05 08:21N 34°02' E 134°59'1215.2
2016-Feb-05 07:33N 34°14' E 134°58'1515.1
2016-Feb-05 06:33N 34°29' E 135°01'  

Dump ship's entire track history